Time;durP1;ratioP1;P1;durP2;ratioP2;P2;SDS_P1;SDS_P2;PMS_P1;PMS_P2;Temp;Humidity;BMP_temperature;BMP_pressure;BME280_temperature;BME280_humidity;BME280_pressure;Samples;Min_cycle;Max_cycle;Signal;HPM_P1;HPM_P2
2021/05/21 00:02:01;;;;;;;;;;;;;;;20.07;66.29;100327.31;1743134;81;20265;-63
2021/05/21 00:04:28;;;;;;;;;;;;;;;20.05;66.28;100325.45;1738212;81;20932;-63
2021/05/21 00:06:54;;;;;;;;;;;;;;;20.04;66.30;100325.20;1739761;81;20276;-63
2021/05/21 00:09:20;;;;;;;;;;;;;;;20.05;66.25;100317.73;1737921;81;20264;-63
2021/05/21 00:11:46;;;;;;;;;;;;;;;20.08;66.27;100323.98;1740392;81;20252;-62
2021/05/21 00:14:11;;;;;;;;;;;;;;;20.11;66.24;100321.16;1739856;81;20188;-63
2021/05/21 00:16:37;;;;;;;;;;;;;;;20.12;66.29;100329.09;1738478;81;21001;-63
2021/05/21 00:19:03;;;;;;;;;;;;;;;20.14;66.29;100328.22;1740437;81;21449;-63
2021/05/21 00:21:29;;;;;;;;;;;;;;;20.15;66.34;100320.18;1729750;81;20188;-63
2021/05/21 00:23:55;;;;;;;;;;;;;;;20.19;66.32;100321.72;1735353;81;20208;-62
2021/05/21 00:26:21;;;;;;;;;;;;;;;20.21;66.35;100320.80;1735453;81;20237;-62
2021/05/21 00:28:47;;;;;;;;;;;;;;;20.23;66.33;100324.88;1740416;81;21105;-63
2021/05/21 00:31:13;;;;;;;;;;;;;;;20.25;66.33;100323.97;1733655;81;20719;-62
2021/05/21 00:33:39;;;;;;;;;;;;;;;20.28;66.32;100332.19;1731551;81;20232;-62
2021/05/21 00:36:05;;;;;;;;;;;;;;;20.29;66.30;100323.59;1728686;81;20240;-62
2021/05/21 00:38:31;;;;;;;;;;;;;;;20.30;66.30;100334.08;1728798;81;20331;-62
2021/05/21 00:41:02;;;;;;;;;;;;;;;20.30;66.29;100331.31;1737516;81;21003;-63
2021/05/21 00:43:28;;;;;;;;;;;;;;;20.29;66.26;100335.17;1727885;81;20233;-62
2021/05/21 00:45:53;;;;;;;;;;;;;;;20.28;66.24;100333.58;1737839;81;20213;-62
2021/05/21 00:48:20;;;;;;;;;;;;;;;20.28;66.24;100336.34;1727377;81;20220;-62
2021/05/21 00:50:49;;;;;;;;;;;;;;;20.25;66.18;100341.11;1729101;81;20297;-62
2021/05/21 00:53:15;;;;;;;;;;;;;;;20.24;66.16;100344.44;1722377;81;21184;-62
2021/05/21 00:55:41;;;;;;;;;;;;;;;20.22;66.12;100340.39;1711615;82;20300;-62
2021/05/21 00:58:06;;;;;;;;;;;;;;;20.20;66.13;100346.23;1733592;81;20777;-62
2021/05/21 01:00:32;;;;;;;;;;;;;;;20.18;66.09;100345.76;1728519;81;20202;-61
2021/05/21 01:02:58;;;;;;;;;;;;;;;20.17;66.09;100348.84;1732854;81;20284;-61
2021/05/21 01:05:24;;;;;;;;;;;;;;;20.14;66.07;100345.35;1733764;81;22087;-61
2021/05/21 01:07:50;;;;;;;;;;;;;;;20.13;66.08;100348.68;1734279;81;21649;-61
2021/05/21 01:10:16;;;;;;;;;;;;;;;20.10;66.08;100345.20;1731379;81;20202;-61
2021/05/21 01:12:42;;;;;;;;;;;;;;;20.08;66.06;100336.41;1730186;82;20259;-61
2021/05/21 01:15:11;;;;;;;;;;;;;;;20.05;66.06;100343.41;1733451;82;20228;-61
2021/05/21 01:17:37;;;;;;;;;;;;;;;20.03;66.07;100345.66;1732126;81;21738;-61
2021/05/21 01:20:06;;;;;;;;;;;;;;;20.01;66.05;100348.52;1731167;81;21564;-61
2021/05/21 01:22:31;;;;;;;;;;;;;;;20.00;66.07;100346.89;1738739;81;20263;-61
2021/05/21 01:24:57;;;;;;;;;;;;;;;19.98;66.06;100343.09;1743465;81;20693;-62
2021/05/21 01:27:24;;;;;;;;;;;;;;;19.97;66.08;100344.22;1736711;81;20224;-61
2021/05/21 01:29:50;;;;;;;;;;;;;;;19.95;66.04;100342.34;1739643;81;21390;-61
2021/05/21 01:32:16;;;;;;;;;;;;;;;19.95;66.08;100344.28;1740733;81;20204;-62
2021/05/21 01:34:42;;;;;;;;;;;;;;;19.93;66.07;100347.39;1741390;81;20335;-62
2021/05/21 01:37:16;;;;;;;;;;;;;;;19.91;66.10;100349.64;1730332;81;20527;-62
2021/05/21 01:39:42;;;;;;;;;;;;;;;19.91;66.06;100355.17;1740449;81;20209;-62
2021/05/21 01:42:10;;;;;;;;;;;;;;;19.89;66.10;100349.17;1739094;81;21126;-62
2021/05/21 01:44:36;;;;;;;;;;;;;;;19.88;66.04;100346.72;1740708;81;21049;-63
2021/05/21 01:47:02;;;;;;;;;;;;;;;19.89;66.05;100342.27;1741122;81;20200;-63
2021/05/21 01:49:28;;;;;;;;;;;;;;;19.92;66.01;100349.08;1735489;81;20229;-63
2021/05/21 01:52:00;;;;;;;;;;;;;;;19.94;66.04;100355.11;1738881;81;20292;-64
2021/05/21 01:54:27;;;;;;;;;;;;;;;19.96;66.04;100359.72;1734344;81;21120;-62
2021/05/21 01:56:53;;;;;;;;;;;;;;;19.97;66.09;100359.41;1732667;81;20493;-64
2021/05/21 01:59:23;;;;;;;;;;;;;;;20.01;66.08;100347.14;1735841;81;20181;-63
2021/05/21 02:01:49;;;;;;;;;;;;;;;20.03;66.11;100355.89;1732826;81;20217;-63
2021/05/21 02:04:15;;;;;;;;;;;;;;;20.06;66.12;100353.89;1741155;81;20249;-64
2021/05/21 02:06:41;;;;;;;;;;;;;;;20.08;66.12;100366.22;1746216;81;21046;-63
2021/05/21 02:09:08;;;;;;;;;;;;;;;20.12;66.09;100359.48;1737906;81;20189;-63
2021/05/21 02:11:35;;;;;;;;;;;;;;;20.14;66.10;100359.98;1738916;81;20159;-63
2021/05/21 02:14:02;;;;;;;;;;;;;;;20.16;66.09;100364.59;1743166;81;20222;-63
2021/05/21 02:16:28;;;;;;;;;;;;;;;20.16;66.07;100352.73;1738195;81;20157;-63
2021/05/21 02:18:54;;;;;;;;;;;;;;;20.17;66.05;100365.41;1738742;81;23243;-63
2021/05/21 02:21:20;;;;;;;;;;;;;;;20.15;66.00;100365.75;1748919;81;20221;-63
2021/05/21 02:23:46;;;;;;;;;;;;;;;20.16;65.99;100359.63;1746746;79;20269;-63
2021/05/21 02:26:12;;;;;;;;;;;;;;;20.13;65.95;100363.05;1772116;79;20295;-63
2021/05/21 02:28:38;;;;;;;;;;;;;;;20.12;65.92;100367.77;1776343;79;20223;-63
2021/05/21 02:31:03;;;;;;;;;;;;;;;20.10;65.88;100366.47;1773010;79;21103;-63
2021/05/21 02:33:29;;;;;;;;;;;;;;;20.07;65.88;100377.02;1772846;79;20248;-63
2021/05/21 02:35:55;;;;;;;;;;;;;;;20.05;65.84;100379.31;1773390;79;20204;-63
2021/05/21 02:38:21;;;;;;;;;;;;;;;20.04;65.83;100388.72;1771945;79;20242;-63
2021/05/21 02:40:47;;;;;;;;;;;;;;;20.01;65.82;100381.66;1769501;79;20809;-63
2021/05/21 02:43:13;;;;;;;;;;;;;;;19.98;65.80;100383.13;1771306;79;21736;-63
2021/05/21 02:45:39;;;;;;;;;;;;;;;19.97;65.80;100382.06;1770028;79;20209;-63
2021/05/21 02:48:06;;;;;;;;;;;;;;;19.96;65.80;100388.70;1771554;79;20270;-61
2021/05/21 02:50:31;;;;;;;;;;;;;;;19.92;65.78;100383.03;1773029;79;20294;-62
2021/05/21 02:52:57;;;;;;;;;;;;;;;19.92;65.81;100373.93;1771826;79;20370;-62
2021/05/21 02:55:23;;;;;;;;;;;;;;;19.90;65.77;100375.62;1773351;79;20382;-62
2021/05/21 02:57:49;;;;;;;;;;;;;;;19.89;65.79;100373.20;1772740;79;20187;-62
2021/05/21 03:00:16;;;;;;;;;;;;;;;19.87;65.79;100372.70;1776826;79;20175;-62
2021/05/21 03:02:42;;;;;;;;;;;;;;;19.85;65.79;100381.33;1772990;79;20511;-61
2021/05/21 03:05:09;;;;;;;;;;;;;;;19.83;65.75;100383.58;1773351;79;20287;-62
2021/05/21 03:07:35;;;;;;;;;;;;;;;19.82;65.78;100388.84;1770052;79;21200;-62
2021/05/21 03:10:01;;;;;;;;;;;;;;;19.81;65.78;100389.19;1748298;80;20249;-61
2021/05/21 03:12:27;;;;;;;;;;;;;;;19.80;65.80;100394.45;1726439;82;20249;-61
2021/05/21 03:14:53;;;;;;;;;;;;;;;19.78;65.77;100398.09;1774039;79;20527;-61
2021/05/21 03:17:18;;;;;;;;;;;;;;;19.78;65.80;100395.33;1774842;79;20210;-62
2021/05/21 03:19:46;;;;;;;;;;;;;;;19.76;65.81;100401.75;1773264;79;21021;-62
2021/05/21 03:22:12;;;;;;;;;;;;;;;19.75;65.83;100409.22;1773837;79;20404;-62
2021/05/21 03:24:38;;;;;;;;;;;;;;;19.75;65.79;100418.06;1759080;79;20276;-62
2021/05/21 03:27:04;;;;;;;;;;;;;;;19.73;65.84;100429.41;1738057;81;20164;-63
2021/05/21 03:29:30;;;;;;;;;;;;;;;19.73;65.83;100431.39;1738346;81;20237;-63
2021/05/21 03:31:56;;;;;;;;;;;;;;;19.76;65.78;100434.88;1738326;81;21747;-63
2021/05/21 03:34:22;;;;;;;;;;;;;;;19.77;65.76;100438.71;1738574;81;20168;-63
2021/05/21 03:36:48;;;;;;;;;;;;;;;19.79;65.80;100446.09;1734197;81;20282;-63
2021/05/21 03:39:14;;;;;;;;;;;;;;;19.82;65.80;100444.62;1737762;81;20711;-63
2021/05/21 03:41:40;;;;;;;;;;;;;;;19.84;65.84;100447.89;1739838;81;20769;-62
2021/05/21 03:44:06;;;;;;;;;;;;;;;19.87;65.85;100450.81;1737175;81;21108;-62
2021/05/21 03:46:32;;;;;;;;;;;;;;;19.89;65.85;100454.09;1718491;82;20277;-62
2021/05/21 03:49:01;;;;;;;;;;;;;;;19.91;65.88;100454.56;1703030;83;20722;-63
2021/05/21 03:51:26;;;;;;;;;;;;;;;19.94;65.86;100452.53;1716440;81;20312;-62
2021/05/21 03:53:52;;;;;;;;;;;;;;;19.97;65.88;100452.47;1702133;83;20247;-63
2021/05/21 03:56:18;;;;;;;;;;;;;;;20.01;65.89;100458.97;1703069;83;21170;-63
2021/05/21 03:58:44;;;;;;;;;;;;;;;20.02;65.83;100458.66;1699308;83;20256;-57
2021/05/21 04:01:10;;;;;;;;;;;;;;;20.03;65.86;100464.41;1734723;81;20284;-57
2021/05/21 04:03:36;;;;;;;;;;;;;;;20.06;65.84;100456.88;1741952;81;20157;-57
2021/05/21 04:06:02;;;;;;;;;;;;;;;20.08;65.85;100455.98;1739440;81;20259;-58
2021/05/21 04:08:29;;;;;;;;;;;;;;;20.14;65.86;100461.35;1732066;81;20782;-58
2021/05/21 04:10:55;;;;;;;;;;;;;;;20.18;65.83;100465.09;1741547;81;20269;-57
2021/05/21 04:13:21;;;;;;;;;;;;;;;20.22;65.81;100461.36;1736716;81;20355;-57
2021/05/21 04:15:47;;;;;;;;;;;;;;;20.25;65.74;100469.56;1738835;81;20665;-57
2021/05/21 04:18:13;;;;;;;;;;;;;;;20.29;65.66;100464.48;1737034;81;20305;-58
2021/05/21 04:20:39;;;;;;;;;;;;;;;20.32;65.59;100478.23;1738492;81;21170;-57
2021/05/21 04:23:05;;;;;;;;;;;;;;;20.35;65.51;100483.92;1739694;81;20239;-58
2021/05/21 04:25:31;;;;;;;;;;;;;;;20.34;65.43;100488.37;1752343;80;20185;-57
2021/05/21 04:27:57;;;;;;;;;;;;;;;20.36;65.44;100495.79;1767756;80;20516;-57
2021/05/21 04:30:23;;;;;;;;;;;;;;;20.37;65.36;100492.69;1762600;80;20777;-57
2021/05/21 04:32:51;;;;;;;;;;;;;;;20.38;65.38;100492.94;1765221;80;20967;-57
2021/05/21 04:35:18;;;;;;;;;;;;;;;20.39;65.32;100492.38;1761692;80;20482;-57
2021/05/21 04:37:44;;;;;;;;;;;;;;;20.39;65.34;100500.09;1759148;80;20226;-58
2021/05/21 04:40:10;;;;;;;;;;;;;;;20.40;65.31;100500.34;1765774;80;20449;-57
2021/05/21 04:42:36;;;;;;;;;;;;;;;20.43;65.36;100503.84;1759610;80;20550;-56
2021/05/21 04:45:04;;;;;;;;;;;;;;;20.45;65.36;100510.44;1759282;80;20757;-57
2021/05/21 04:47:30;;;;;;;;;;;;;;;20.48;65.37;100509.21;1759596;80;20237;-57
2021/05/21 04:49:55;;;;;;;;;;;;;;;20.50;65.34;100516.59;1765155;80;20256;-57
2021/05/21 04:52:21;;;;;;;;;;;;;;;20.52;65.36;100516.28;1762356;80;20234;-57
2021/05/21 04:54:47;;;;;;;;;;;;;;;20.54;65.35;100519.52;1765305;80;20768;-58
2021/05/21 04:57:13;;;;;;;;;;;;;;;20.56;65.37;100519.20;1762679;80;21152;-58
2021/05/21 04:59:39;;;;;;;;;;;;;;;20.56;65.33;100520.59;1766352;80;20276;-57
2021/05/21 05:02:05;;;;;;;;;;;;;;;20.58;65.37;100522.48;1762307;80;20675;-57
2021/05/21 05:04:32;;;;;;;;;;;;;;;20.63;65.35;100518.14;1758056;80;22050;-58
2021/05/21 05:06:58;;;;;;;;;;;;;;;20.68;65.35;100529.86;1758434;80;20290;-57
2021/05/21 05:09:24;;;;;;;;;;;;;;;20.73;65.35;100523.36;1765443;80;21112;-58
2021/05/21 05:11:50;;;;;;;;;;;;;;;20.76;65.35;100527.67;1766459;80;20653;-57
2021/05/21 05:14:16;;;;;;;;;;;;;;;20.81;65.39;100530.84;1761404;80;20284;-58
2021/05/21 05:16:41;;;;;;;;;;;;;;;20.87;65.41;100537.84;1764370;80;21907;-59
2021/05/21 05:19:08;;;;;;;;;;;;;;;20.92;65.41;100528.80;1763336;80;20218;-58
2021/05/21 05:21:37;;;;;;;;;;;;;;;20.97;65.42;100525.88;1767160;80;21417;-57
2021/05/21 05:24:04;;;;;;;;;;;;;;;21.05;65.39;100528.37;1767441;80;20517;-57
2021/05/21 05:26:30;;;;;;;;;;;;;;;21.12;65.34;100525.13;1771410;79;20505;-58
2021/05/21 05:28:57;;;;;;;;;;;;;;;21.19;65.30;100535.15;1770254;79;20416;-58
2021/05/21 05:31:23;;;;;;;;;;;;;;;21.25;65.25;100541.59;1774572;79;20228;-57
2021/05/21 05:33:49;;;;;;;;;;;;;;;21.28;65.17;100541.48;1770739;79;21258;-58
2021/05/21 05:36:15;;;;;;;;;;;;;;;21.31;65.09;100538.87;1773888;79;20769;-57
2021/05/21 05:38:41;;;;;;;;;;;;;;;21.33;65.01;100548.23;1775414;79;20277;-57
2021/05/21 05:41:07;;;;;;;;;;;;;;;21.34;64.91;100544.34;1769554;79;21409;-57
2021/05/21 05:43:33;;;;;;;;;;;;;;;21.34;64.82;100547.11;1773992;79;20226;-57
2021/05/21 05:45:59;;;;;;;;;;;;;;;21.33;64.74;100551.82;1777308;79;21133;-58
2021/05/21 05:48:25;;;;;;;;;;;;;;;21.32;64.65;100552.95;1771058;79;20325;-58
2021/05/21 05:50:51;;;;;;;;;;;;;;;21.30;64.59;100552.45;1774488;79;20722;-58
2021/05/21 05:53:18;;;;;;;;;;;;;;;21.28;64.55;100555.32;1773541;79;20579;-58
2021/05/21 05:55:44;;;;;;;;;;;;;;;21.26;64.50;100568.09;1777239;79;20288;-58
2021/05/21 05:58:10;;;;;;;;;;;;;;;21.24;64.48;100557.94;1776078;79;21118;-58
2021/05/21 06:00:36;;;;;;;;;;;;;;;21.22;64.43;100568.50;1771642;79;20543;-57
2021/05/21 06:03:09;;;;;;;;;;;;;;;21.21;64.43;100574.38;1773865;79;20203;-58
2021/05/21 06:05:35;;;;;;;;;;;;;;;21.18;64.41;100579.16;1771285;79;21835;-58
2021/05/21 06:08:03;;;;;;;;;;;;;;;21.16;64.41;100573.16;1772539;79;20215;-58
2021/05/21 06:10:29;;;;;;;;;;;;;;;21.14;64.42;100572.66;1770579;79;21128;-57
2021/05/21 06:13:03;;;;;;;;;;;;;;;21.14;64.43;100575.42;1771522;79;20549;-57
2021/05/21 06:15:30;;;;;;;;;;;;;;;21.12;64.40;100578.54;1770413;79;20259;-57
2021/05/21 06:17:56;;;;;;;;;;;;;;;21.11;64.41;100571.91;1775589;79;20206;-57
2021/05/21 06:20:24;;;;;;;;;;;;;;;21.10;64.40;100573.86;1777369;79;20219;-58
2021/05/21 06:22:50;;;;;;;;;;;;;;;21.09;64.41;100570.84;1774536;79;22009;-58
2021/05/21 06:25:19;;;;;;;;;;;;;;;21.08;64.42;100565.09;1774710;80;20167;-57
2021/05/21 06:27:45;;;;;;;;;;;;;;;21.06;64.42;100565.16;1772807;79;20215;-57
2021/05/21 06:30:12;;;;;;;;;;;;;;;21.05;64.42;100566.31;1772561;79;20261;-57
2021/05/21 06:32:38;;;;;;;;;;;;;;;21.04;64.45;100574.36;1771552;79;20490;-57
2021/05/21 06:35:08;;;;;;;;;;;;;;;21.03;64.46;100571.34;1771170;80;21004;-57
2021/05/21 06:37:34;;;;;;;;;;;;;;;21.02;64.47;100572.48;1775760;79;20251;-57
2021/05/21 06:40:00;;;;;;;;;;;;;;;21.02;64.48;100570.53;1766712;80;20449;-57
2021/05/21 06:42:26;;;;;;;;;;;;;;;21.05;64.46;100571.84;1770384;79;20720;-57
2021/05/21 06:44:52;;;;;;;;;;;;;;;21.07;64.45;100573.14;1771065;80;20295;-58
2021/05/21 06:47:18;;;;;;;;;;;;;;;21.10;64.52;100579.39;1772712;79;21035;-57
2021/05/21 06:49:43;;;;;;;;;;;;;;;21.13;64.55;100578.76;1770299;79;20259;-57
2021/05/21 06:52:09;;;;;;;;;;;;;;;21.18;64.61;100575.02;1765030;80;20302;-58
2021/05/21 06:54:36;;;;;;;;;;;;;;;21.25;64.65;100571.20;1776400;79;20409;-57
2021/05/21 06:57:03;;;;;;;;;;;;;;;21.29;64.65;100573.55;1770272;79;20225;-58
2021/05/21 06:59:28;;;;;;;;;;;;;;;21.35;64.63;100576.37;1769503;79;21122;-57
2021/05/21 07:01:54;;;;;;;;;;;;;;;21.40;64.62;100578.98;1728330;82;20643;-57
2021/05/21 07:04:20;;;;;;;;;;;;;;;21.45;64.61;100579.37;1773226;79;20787;-57
2021/05/21 07:06:46;;;;;;;;;;;;;;;21.48;64.56;100578.15;1766902;80;20141;-57
2021/05/21 07:09:12;;;;;;;;;;;;;;;21.51;64.56;100577.52;1776407;79;20213;-58
2021/05/21 07:11:38;;;;;;;;;;;;;;;21.53;64.50;100580.75;1772959;79;21106;-58
2021/05/21 07:14:06;;;;;;;;;;;;;;;21.54;64.45;100573.27;1767103;80;20197;-57
2021/05/21 07:16:32;;;;;;;;;;;;;;;21.54;64.38;100570.49;1772630;79;20238;-58
2021/05/21 07:18:58;;;;;;;;;;;;;;;21.53;64.32;100575.21;1776384;79;21905;-58
2021/05/21 07:21:24;;;;;;;;;;;;;;;21.53;64.27;100573.02;1775998;79;20219;-57
2021/05/21 07:23:51;;;;;;;;;;;;;;;21.51;64.24;100578.90;1717326;81;21125;-57
2021/05/21 07:26:17;;;;;;;;;;;;;;;21.49;64.20;100576.20;1745648;80;20482;-57
2021/05/21 07:28:43;;;;;;;;;;;;;;;21.46;64.16;100572.71;1738203;81;20256;-57
2021/05/21 07:31:09;;;;;;;;;;;;;;;21.43;64.13;100576.15;1742044;81;20426;-57
2021/05/21 07:33:36;;;;;;;;;;;;;;;21.40;64.12;100574.83;1729799;81;20200;-58
2021/05/21 07:36:04;;;;;;;;;;;;;;;21.37;64.11;100586.00;1689924;84;21119;-58
2021/05/21 07:38:31;;;;;;;;;;;;;;;21.34;64.11;100578.92;1734888;81;20624;-58
2021/05/21 07:40:57;;;;;;;;;;;;;;;21.31;64.12;100580.95;1700190;84;20511;-58
2021/05/21 07:43:23;;;;;;;;;;;;;;;21.27;64.11;100584.94;1734542;81;20279;-57
2021/05/21 07:45:49;;;;;;;;;;;;;;;21.24;64.15;100582.02;1731144;81;20342;-58
2021/05/21 07:48:15;;;;;;;;;;;;;;;21.23;64.14;100578.44;1702058;84;21127;-58
2021/05/21 07:50:41;;;;;;;;;;;;;;;21.22;64.16;100589.81;1731182;81;20540;-58
2021/05/21 07:53:07;;;;;;;;;;;;;;;21.19;64.17;100591.87;1733231;81;20258;-57
2021/05/21 07:55:33;;;;;;;;;;;;;;;21.18;64.18;100591.61;1733946;81;20495;-57
2021/05/21 07:57:59;;;;;;;;;;;;;;;21.15;64.21;100601.39;1735441;81;20428;-58
2021/05/21 08:00:25;;;;;;;;;;;;;;;21.14;64.22;100605.86;1733012;81;21031;-57
2021/05/21 08:02:51;;;;;;;;;;;;;;;21.12;64.24;100602.05;1735921;82;20209;-58
2021/05/21 08:05:17;;;;;;;;;;;;;;;21.11;64.27;100604.53;1733855;81;20208;-58
2021/05/21 08:07:43;;;;;;;;;;;;;;;21.11;64.29;100605.10;1733840;81;20224;-58
2021/05/21 08:10:10;;;;;;;;;;;;;;;21.11;64.32;100603.16;1732060;81;20170;-57
2021/05/21 08:12:36;;;;;;;;;;;;;;;21.12;64.32;100606.73;1735342;81;21088;-57
2021/05/21 08:15:03;;;;;;;;;;;;;;;21.13;64.33;100607.02;1732554;81;20230;-57
2021/05/21 08:17:34;;;;;;;;;;;;;;;21.17;64.28;100608.81;1731856;81;20222;-58
2021/05/21 08:19:59;;;;;;;;;;;;;;;21.22;64.29;100614.16;1735340;81;20257;-58
2021/05/21 08:22:25;;;;;;;;;;;;;;;21.25;64.30;100615.48;1733611;81;20498;-58
2021/05/21 08:24:52;;;;;;;;;;;;;;;21.29;64.34;100619.21;1735114;81;21246;-58
2021/05/21 08:27:18;;;;;;;;;;;;;;;21.33;64.40;100616.03;1768990;79;20224;-57
2021/05/21 08:29:44;;;;;;;;;;;;;;;21.39;64.43;100617.47;1773020;79;20220;-57
2021/05/21 08:32:10;;;;;;;;;;;;;;;21.46;64.43;100617.00;1772963;79;20165;-58
2021/05/21 08:34:36;;;;;;;;;;;;;;;21.52;64.44;100617.05;1772674;79;20222;-58
2021/05/21 08:37:01;;;;;;;;;;;;;;;21.59;64.39;100627.89;1769922;79;21281;-57
2021/05/21 08:39:28;;;;;;;;;;;;;;;21.66;64.35;100630.96;1774312;79;21592;-58
2021/05/21 08:41:54;;;;;;;;;;;;;;;21.72;64.33;100631.61;1774115;79;20214;-58
2021/05/21 08:44:20;;;;;;;;;;;;;;;21.77;64.29;100639.16;1770626;79;20240;-59
2021/05/21 08:46:46;;;;;;;;;;;;;;;21.80;64.22;100638.52;1773216;79;20698;-57
2021/05/21 08:49:13;;;;;;;;;;;;;;;21.84;64.16;100640.05;1771498;79;21066;-57
2021/05/21 08:51:39;;;;;;;;;;;;;;;21.85;64.04;100636.92;1771963;79;20588;-58
2021/05/21 08:54:07;;;;;;;;;;;;;;;21.85;63.97;100625.06;1773142;79;33201;-58
2021/05/21 08:56:34;;;;;;;;;;;;;;;21.85;63.95;100625.84;1777636;79;20227;-57
2021/05/21 08:58:59;;;;;;;;;;;;;;;21.86;63.87;100629.44;1778883;79;20234;-58
2021/05/21 09:01:27;;;;;;;;;;;;;;;21.85;63.81;100642.47;1770559;79;21263;-57
2021/05/21 09:04:01;;;;;;;;;;;;;;;21.85;63.76;100641.08;1774821;79;20248;-57
2021/05/21 09:06:28;;;;;;;;;;;;;;;21.84;63.71;100637.28;1774897;79;20224;-57
2021/05/21 09:08:58;;;;;;;;;;;;;;;21.84;63.67;100640.86;1771521;79;20457;-57
2021/05/21 09:11:31;;;;;;;;;;;;;;;21.83;63.66;100647.54;1773986;79;20172;-57
2021/05/21 09:14:10;;;;;;;;;;;;;;;21.81;63.63;100647.05;1774847;79;21127;-57
2021/05/21 09:16:40;;;;;;;;;;;;;;;21.82;63.59;100653.39;1776869;79;20291;-57
2021/05/21 09:19:12;;;;;;;;;;;;;;;21.79;63.58;100656.84;1776606;79;20309;-57
2021/05/21 09:22:04;;;;;;;;;;;;;;;21.77;63.55;100658.53;1775517;79;21838;-57
2021/05/21 09:24:43;;;;;;;;;;;;;;;21.75;63.60;100661.41;1753619;80;20535;-57
2021/05/21 09:27:10;;;;;;;;;;;;;;;21.73;63.57;100656.19;1702594;82;21072;-57
2021/05/21 09:29:46;;;;;;;;;;;;;;;21.72;63.56;100652.38;1704655;82;20295;-57
2021/05/21 09:32:34;;;;;;;;;;;;;;;21.71;63.57;100652.95;1719539;82;20219;-58
2021/05/21 09:35:21;;;;;;;;;;;;;;;21.72;63.60;100655.97;1702452;83;20554;-57
2021/05/21 09:37:44;;;;;;;;;;;;;;;21.72;63.57;100652.38;1698547;83;20500;-58
2021/05/21 09:40:15;;;;;;;;;;;;;;;21.69;63.56;100648.30;1710276;83;21027;-57
2021/05/21 09:42:54;;;;;;;;;;;;;;;21.67;63.57;100654.75;1702920;83;20208;-57
2021/05/21 09:45:24;;;;;;;;;;;;;;;21.65;63.59;100653.42;1734590;82;20498;-58
2021/05/21 09:47:52;;;;;;;;;;;;;;;21.65;63.61;100655.62;1738524;82;20175;-58
2021/05/21 09:50:20;;;;;;;;;;;;;;;21.67;63.63;100658.90;1719394;82;20495;-57
2021/05/21 09:52:47;;;;;;;;;;;;;;;21.69;63.62;100662.14;1706858;82;21132;-58
2021/05/21 09:55:13;;;;;;;;;;;;;;;21.71;63.61;100666.80;1690763;83;21476;-58
2021/05/21 09:57:40;;;;;;;;;;;;;;;21.70;63.60;100667.11;1703536;83;20313;-57
2021/05/21 10:00:11;;;;;;;;;;;;;;;21.73;63.57;100665.88;1729133;81;20234;-57
2021/05/21 10:02:37;;;;;;;;;;;;;;;21.74;63.56;100664.73;1734176;81;20139;-58
2021/05/21 10:05:06;;;;;;;;;;;;;;;21.76;63.60;100665.23;1704725;82;21142;-57
2021/05/21 10:07:32;;;;;;;;;;;;;;;21.79;63.65;100660.42;1692202;83;20231;-57
2021/05/21 10:09:58;;;;;;;;;;;;;;;21.84;63.75;100662.20;1723045;82;20187;-58
2021/05/21 10:12:27;;;;;;;;;;;;;;;21.90;63.78;100661.47;1725056;81;21861;-58
2021/05/21 10:14:53;;;;;;;;;;;;;;;21.97;63.80;100659.02;1703077;83;20230;-57
2021/05/21 10:17:22;;;;;;;;;;;;;;;22.06;63.81;100665.36;1742436;81;21134;-57
2021/05/21 10:19:48;;;;;;;;;;;;;;;22.11;63.78;100654.07;1735745;81;20185;-58
2021/05/21 10:22:29;;;;;;;;;;;;;;;22.17;63.77;100647.22;1725749;81;20231;-57
2021/05/21 10:25:14;;;;;;;;;;;;;;;22.23;63.73;100656.98;1695845;83;20231;-57
2021/05/21 10:27:42;;;;;;;;;;;;;;;22.29;63.72;100657.84;1704932;82;20215;-58
2021/05/21 10:30:08;;;;;;;;;;;;;;;22.30;63.65;100655.89;1716816;83;21146;-58
2021/05/21 10:32:35;;;;;;;;;;;;;;;22.32;63.61;100669.64;1709013;83;20225;-57
2021/05/21 10:35:13;;;;;;;;;;;;;;;22.32;63.55;100667.44;1734949;81;20302;-58
2021/05/21 10:37:39;;;;;;;;;;;;;;;22.31;63.51;100664.45;1737442;81;20240;-57
2021/05/21 10:40:09;;;;;;;;;;;;;;;22.30;63.45;100660.05;1735740;81;20260;-57
2021/05/21 10:42:44;;;;;;;;;;;;;;;22.31;63.44;100665.27;1736643;81;20749;-58
2021/05/21 10:45:16;;;;;;;;;;;;;;;22.32;63.42;100663.28;1740307;82;20249;-58
2021/05/21 10:47:45;;;;;;;;;;;;;;;22.34;63.35;100661.00;1739541;81;20165;-57
2021/05/21 10:50:16;;;;;;;;;;;;;;;22.35;63.32;100659.05;1740491;81;20574;-57
2021/05/21 10:52:53;;;;;;;;;;;;;;;22.35;63.28;100652.12;1732390;81;20358;-57
2021/05/21 10:55:22;;;;;;;;;;;;;;;22.38;63.25;100659.19;1733311;81;21615;-57
2021/05/21 10:58:00;;;;;;;;;;;;;;;22.39;63.23;100655.28;1736668;81;20548;-57
2021/05/21 11:00:26;;;;;;;;;;;;;;;22.42;63.21;100651.83;1739095;81;20281;-58
2021/05/21 11:02:53;;;;;;;;;;;;;;;22.46;63.17;100651.97;1742436;81;20202;-57
2021/05/21 11:05:31;;;;;;;;;;;;;;;22.46;63.14;100655.56;1738866;81;20198;-57
2021/05/21 11:08:08;;;;;;;;;;;;;;;22.46;63.12;100654.75;1738323;81;21314;-57
2021/05/21 11:10:37;;;;;;;;;;;;;;;22.44;63.10;100659.26;1733936;81;20249;-58
2021/05/21 11:13:10;;;;;;;;;;;;;;;22.44;63.10;100655.67;1734476;81;20185;-57
2021/05/21 11:15:39;;;;;;;;;;;;;;;22.44;63.11;100653.72;1737955;81;21991;-57
2021/05/21 11:18:15;;;;;;;;;;;;;;;22.45;63.15;100651.76;1743354;81;20581;-57
2021/05/21 11:21:04;;;;;;;;;;;;;;;22.48;63.16;100651.90;1712250;81;21137;-57
2021/05/21 11:23:41;;;;;;;;;;;;;;;22.51;63.13;100658.72;1734558;81;20302;-57
2021/05/21 11:26:14;;;;;;;;;;;;;;;22.51;63.11;100654.56;1703514;82;20248;-57
2021/05/21 11:28:43;;;;;;;;;;;;;;;22.49;63.13;100656.27;1774399;79;20945;-57
2021/05/21 11:31:12;;;;;;;;;;;;;;;22.48;63.10;100653.28;1773999;79;20135;-57
2021/05/21 11:33:37;;;;;;;;;;;;;;;22.46;63.13;100654.17;1768889;79;20986;-57
2021/05/21 11:36:06;;;;;;;;;;;;;;;22.45;63.13;100655.91;1775386;79;20188;-57
2021/05/21 11:38:32;;;;;;;;;;;;;;;22.43;63.14;100659.02;1772927;79;20637;-57
2021/05/21 11:40:58;;;;;;;;;;;;;;;22.44;63.16;100666.75;1768124;79;20755;-57
2021/05/21 11:43:24;;;;;;;;;;;;;;;22.44;63.18;100680.05;1775421;79;20331;-59
2021/05/21 11:45:55;;;;;;;;;;;;;;;22.46;63.27;100697.14;1769638;79;20970;-57
2021/05/21 11:48:32;;;;;;;;;;;;;;;22.51;63.34;100696.15;1774261;79;20266;-57
2021/05/21 11:50:59;;;;;;;;;;;;;;;22.54;63.41;100692.13;1775653;79;20530;-57
2021/05/21 11:53:25;;;;;;;;;;;;;;;22.61;63.45;100693.02;1770995;79;20536;-57
2021/05/21 11:55:50;;;;;;;;;;;;;;;22.68;63.48;100682.20;1770064;80;20187;-57
2021/05/21 11:58:27;;;;;;;;;;;;;;;22.75;63.51;100684.71;1769758;79;20987;-58
2021/05/21 12:01:00;;;;;;;;;;;;;;;22.83;63.47;100686.41;1774602;79;20398;-57
2021/05/21 12:03:38;;;;;;;;;;;;;;;22.88;63.44;100687.00;1773546;79;20264;-57
2021/05/21 12:06:04;;;;;;;;;;;;;;;22.93;63.41;100688.20;1755420;80;20410;-56
2021/05/21 12:08:31;;;;;;;;;;;;;;;22.96;63.38;100690.30;1771932;79;20240;-57
2021/05/21 12:10:57;;;;;;;;;;;;;;;22.99;63.35;100686.05;1772887;79;21015;-57
2021/05/21 12:13:27;;;;;;;;;;;;;;;23.02;63.30;100689.53;1776684;79;20196;-57
2021/05/21 12:15:53;;;;;;;;;;;;;;;23.03;63.23;100685.62;1770676;79;20144;-57
2021/05/21 12:18:19;;;;;;;;;;;;;;;23.03;63.17;100688.39;1744676;79;20272;-57
2021/05/21 12:20:52;;;;;;;;;;;;;;;23.00;63.13;100688.47;1770860;79;20235;-56
2021/05/21 12:23:18;;;;;;;;;;;;;;;23.01;63.10;100685.13;1772691;79;21172;-57
2021/05/21 12:25:45;;;;;;;;;;;;;;;23.01;63.07;100680.96;1771617;79;20367;-56
2021/05/21 12:28:11;;;;;;;;;;;;;;;23.02;63.04;100679.25;1764165;79;20288;-56
2021/05/21 12:30:37;;;;;;;;;;;;;;;23.03;63.01;100683.66;1771203;79;20172;-57
2021/05/21 12:33:03;;;;;;;;;;;;;;;23.05;62.99;100681.91;1774059;79;20303;-56
2021/05/21 12:35:36;;;;;;;;;;;;;;;23.06;62.98;100680.77;1772956;79;21784;-57
2021/05/21 12:38:03;;;;;;;;;;;;;;;23.06;62.94;100688.53;1739190;80;20233;-57